createdAt,value
2019-01-26T00:00:56.268Z,100174.42
2019-01-26T00:03:25.415Z,100166.99
2019-01-26T00:05:57.269Z,100163.41
2019-01-26T00:08:26.057Z,100159.61
2019-01-26T00:10:55.081Z,100157.85
2019-01-26T00:13:24.107Z,100153.28
2019-01-26T00:15:52.901Z,100154.67
2019-01-26T00:18:21.646Z,100155.56
2019-01-26T00:20:50.634Z,100150.66
2019-01-26T00:23:21.907Z,100159.73
2019-01-26T00:25:50.927Z,100151.98
2019-01-26T00:28:19.741Z,100149.33
2019-01-26T00:30:48.657Z,100154.66
2019-01-26T00:33:17.469Z,100154.66
2019-01-26T00:35:46.452Z,100157.24
2019-01-26T00:41:00.178Z,100153.63
2019-01-26T00:46:28.479Z,100128.22
2019-01-26T00:48:55.592Z,100125.64
2019-01-26T00:51:24.319Z,100131.27
2019-01-26T00:53:52.997Z,100136.45
2019-01-26T00:56:21.629Z,100132.02
2019-01-26T00:58:50.255Z,100127.12
2019-01-26T01:01:18.946Z,100129.67
2019-01-26T01:03:47.649Z,100122.27
2019-01-26T01:06:16.277Z,100117.75
2019-01-26T01:08:44.898Z,100125.17
2019-01-26T01:11:13.553Z,100121.78
2019-01-26T01:13:42.158Z,100112.17
2019-01-26T01:16:10.809Z,100122.41
2019-01-26T01:18:39.571Z,100117.69
2019-01-26T01:21:08.191Z,100128.34
2019-01-26T01:23:36.892Z,100110.97
2019-01-26T01:26:05.558Z,100115.88
2019-01-26T01:28:34.240Z,100112.38
2019-01-26T01:31:02.891Z,100113.39
2019-01-26T01:33:31.576Z,100113.39
2019-01-26T01:36:00.217Z,100114.79
2019-01-26T01:38:28.837Z,100108.96
2019-01-26T01:40:57.473Z,100100.66
2019-01-26T01:43:26.093Z,100100.02
2019-01-26T01:45:54.719Z,100100.53
2019-01-26T01:48:23.449Z,100095.44
2019-01-26T01:50:52.181Z,100098.44
2019-01-26T01:53:20.817Z,100090.54
2019-01-26T01:55:49.495Z,100078.16
2019-01-26T01:58:18.126Z,100085.55
2019-01-26T02:00:46.818Z,100087.87
2019-01-26T02:03:15.457Z,100083.39
2019-01-26T02:05:44.153Z,100088.17
2019-01-26T02:08:12.862Z,100084.70
2019-01-26T02:10:41.491Z,100084.02
2019-01-26T02:13:10.164Z,100085.03
2019-01-26T02:15:38.782Z,100086.98
2019-01-26T02:18:07.415Z,100090.56
2019-01-26T02:20:36.102Z,100087.55
2019-01-26T02:23:04.845Z,100080.34
2019-01-26T02:25:33.573Z,100065.80
2019-01-26T02:28:02.188Z,100056.02
2019-01-26T02:30:30.801Z,100063.93
2019-01-26T02:32:59.509Z,100061.19
2019-01-26T02:35:28.280Z,100068.88
2019-01-26T02:37:56.942Z,100081.09
2019-01-26T02:40:25.570Z,100076.98
2019-01-26T02:42:54.204Z,100076.83
2019-01-26T02:45:22.830Z,100071.00
2019-01-26T02:47:51.578Z,100068.47
2019-01-26T02:50:20.186Z,100059.88
2019-01-26T02:52:48.847Z,100059.14
2019-01-26T02:55:17.551Z,100056.12
2019-01-26T02:57:46.258Z,100050.18
2019-01-26T03:00:34.104Z,100053.77
2019-01-26T03:03:02.883Z,100057.66
2019-01-26T03:05:31.592Z,100061.08
2019-01-26T03:08:00.300Z,100052.04
2019-01-26T03:10:28.986Z,100034.75
2019-01-26T03:12:57.615Z,100042.70
2019-01-26T03:15:26.392Z,100029.58
2019-01-26T03:17:55.068Z,100023.48
2019-01-26T03:20:23.771Z,100025.22
2019-01-26T03:22:52.417Z,100020.53
2019-01-26T03:25:21.112Z,100021.73
2019-01-26T03:27:49.787Z,100029.16
2019-01-26T03:30:37.651Z,100038.31
2019-01-26T03:33:06.357Z,100042.22
2019-01-26T03:35:34.978Z,100055.23
2019-01-26T03:38:03.640Z,100057.97
2019-01-26T03:43:27.452Z,100047.38
2019-01-26T03:45:56.252Z,100045.23
2019-01-26T03:48:24.885Z,100047.28
2019-01-26T03:50:53.497Z,100056.27
2019-01-26T03:53:22.142Z,100064.86
2019-01-26T03:55:50.814Z,100057.18
2019-01-26T03:58:19.544Z,100052.64
2019-01-26T04:00:48.166Z,100043.57
2019-01-26T04:03:16.863Z,100032.30
2019-01-26T04:05:45.614Z,100031.05
2019-01-26T04:08:14.262Z,100027.98
2019-01-26T04:10:42.961Z,100015.61
2019-01-26T04:13:11.701Z,100009.95
2019-01-26T04:15:40.384Z,99992.87
2019-01-26T04:18:09.071Z,99993.42
2019-01-26T04:20:37.705Z,99986.52
2019-01-26T04:23:06.369Z,99970.55
2019-01-26T04:25:35.052Z,99969.56
2019-01-26T04:28:03.664Z,99972.59
2019-01-26T04:30:32.413Z,99985.37
2019-01-26T04:33:01.028Z,99979.42
2019-01-26T04:35:29.685Z,99980.66
2019-01-26T04:37:58.322Z,99969.84
2019-01-26T04:40:26.952Z,99968.95
2019-01-26T04:42:55.587Z,99977.54
2019-01-26T04:45:24.631Z,99993.23
2019-01-26T04:47:53.440Z,99983.05
2019-01-26T04:50:22.111Z,99987.16
2019-01-26T04:52:50.851Z,99986.39
2019-01-26T04:55:59.607Z,99984.70
2019-01-26T04:58:28.300Z,99987.02
2019-01-26T05:00:56.926Z,99979.55
2019-01-26T05:03:25.646Z,99991.23
2019-01-26T05:05:54.284Z,99981.73
2019-01-26T05:08:22.930Z,99986.88
2019-01-26T05:10:51.653Z,100005.12
2019-01-26T05:13:20.357Z,100013.01
2019-01-26T05:15:48.982Z,100014.30
2019-01-26T05:18:17.622Z,100012.95
2019-01-26T05:20:46.272Z,100007.25
2019-01-26T05:23:15.022Z,100003.19
2019-01-26T05:25:43.748Z,99982.41
2019-01-26T05:28:12.468Z,99956.55
2019-01-26T05:30:41.084Z,99949.22
2019-01-26T05:33:09.742Z,99960.31
2019-01-26T05:35:38.374Z,99974.50
2019-01-26T05:38:07.018Z,99957.91
2019-01-26T05:40:35.750Z,99967.03
2019-01-26T05:43:04.444Z,99970.56
2019-01-26T05:45:33.056Z,99970.34
2019-01-26T05:48:01.784Z,99971.05
2019-01-26T05:50:30.427Z,99967.55
2019-01-26T05:52:59.118Z,99968.09
2019-01-26T05:58:55.409Z,99977.62
2019-01-26T06:01:24.018Z,99978.52
2019-01-26T06:03:52.693Z,99985.98
2019-01-26T06:06:21.298Z,99980.93
2019-01-26T06:08:49.973Z,99988.01
2019-01-26T06:11:18.581Z,99988.01
2019-01-26T06:13:47.206Z,99993.89
2019-01-26T06:16:15.861Z,99989.71
2019-01-26T06:18:44.479Z,99982.34
2019-01-26T06:21:13.103Z,99982.63
2019-01-26T06:23:41.713Z,99984.63
2019-01-26T06:26:10.446Z,99975.39
2019-01-26T06:28:39.120Z,99966.69
2019-01-26T06:31:07.823Z,99961.70
2019-01-26T06:33:36.464Z,99968.17
2019-01-26T06:36:05.174Z,99960.55
2019-01-26T06:38:33.791Z,99962.87
2019-01-26T06:41:02.424Z,99965.07
2019-01-26T06:43:31.043Z,99960.44
2019-01-26T06:45:59.687Z,99958.31
2019-01-26T06:48:28.295Z,99960.80
2019-01-26T06:50:58.679Z,99957.06
2019-01-26T06:53:27.377Z,99964.66
2019-01-26T06:55:56.085Z,99964.80
2019-01-26T06:58:24.745Z,99968.13
2019-01-26T07:00:53.471Z,99972.49
2019-01-26T07:03:22.094Z,99968.92
2019-01-26T07:06:09.793Z,99968.92
2019-01-26T07:08:38.413Z,99966.17
2019-01-26T07:11:07.048Z,99964.36
2019-01-26T07:13:35.667Z,99975.38
2019-01-26T07:16:04.524Z,99968.99
2019-01-26T07:18:33.484Z,99968.80
2019-01-26T07:21:02.302Z,99976.91
2019-01-26T07:23:30.992Z,99977.08
2019-01-26T07:25:59.684Z,99979.20
2019-01-26T07:28:28.406Z,99975.62
2019-01-26T07:31:16.362Z,99974.16
2019-01-26T07:33:45.135Z,99981.75
2019-01-26T07:36:13.762Z,99980.13
2019-01-26T07:38:42.546Z,99976.81
2019-01-26T07:41:30.585Z,99970.21
2019-01-26T07:43:59.228Z,99964.77
2019-01-26T07:46:27.865Z,99970.75
2019-01-26T07:48:56.574Z,99972.30
2019-01-26T07:51:25.320Z,99976.80
2019-01-26T07:54:13.197Z,99969.13
2019-01-26T07:56:41.825Z,99964.17
2019-01-26T07:59:10.432Z,99965.32
2019-01-26T08:01:39.120Z,99959.96
2019-01-26T08:04:07.845Z,99957.58
2019-01-26T08:06:37.758Z,99952.44
2019-01-26T08:09:08.749Z,99954.11
2019-01-26T08:11:37.490Z,99959.69
2019-01-26T08:14:09.815Z,99960.09
2019-01-26T08:16:58.499Z,99967.16
2019-01-26T08:19:27.143Z,99968.19
2019-01-26T08:21:55.933Z,99974.23
2019-01-26T08:24:24.571Z,99976.41
2019-01-26T08:26:53.188Z,99980.59
2019-01-26T08:29:21.798Z,99976.57
2019-01-26T08:31:50.426Z,99975.82
2019-01-26T08:34:19.035Z,99978.34
2019-01-26T08:36:47.769Z,99969.28
2019-01-26T08:39:16.389Z,99969.37
2019-01-26T08:41:45.125Z,99965.79
2019-01-26T08:44:13.745Z,99958.53
2019-01-26T08:46:42.461Z,99955.52
2019-01-26T08:49:11.217Z,99956.36
2019-01-26T08:51:40.058Z,99944.16
2019-01-26T08:54:08.691Z,99940.84
2019-01-26T08:56:37.398Z,99939.39
2019-01-26T08:59:06.041Z,99930.31
2019-01-26T09:01:34.669Z,99927.56
2019-01-26T09:04:12.163Z,99919.33
2019-01-26T09:06:59.862Z,99917.66
2019-01-26T09:09:28.529Z,99919.48
2019-01-26T09:11:57.160Z,99923.97
2019-01-26T09:14:25.841Z,99922.02
2019-01-26T09:16:54.528Z,99921.83
2019-01-26T09:19:23.335Z,99926.80
2019-01-26T09:21:51.980Z,99939.52
2019-01-26T09:24:20.628Z,99942.00
2019-01-26T09:26:49.280Z,99948.95
2019-01-26T09:29:18.059Z,99943.36
2019-01-26T09:31:46.695Z,99925.73
2019-01-26T09:34:15.435Z,99922.91
2019-01-26T09:36:44.139Z,99925.21
2019-01-26T09:39:12.860Z,99929.36
2019-01-26T09:41:41.492Z,99923.91
2019-01-26T09:44:10.340Z,99931.70
2019-01-26T09:46:38.992Z,99937.48
2019-01-26T09:49:07.701Z,99930.56
2019-01-26T09:51:36.319Z,99936.17
2019-01-26T09:54:44.761Z,99930.56
2019-01-26T09:57:13.457Z,99926.73
2019-01-26T09:59:42.093Z,99922.27
2019-01-26T10:02:10.707Z,99925.27
2019-01-26T10:04:39.333Z,99923.28
2019-01-26T10:07:08.039Z,99916.66
2019-01-26T10:09:36.773Z,99910.72
2019-01-26T10:12:05.488Z,99912.18
2019-01-26T10:14:34.131Z,99902.61
2019-01-26T10:17:02.797Z,99907.90
2019-01-26T10:19:31.467Z,99912.84
2019-01-26T10:22:00.114Z,99908.07
2019-01-26T10:24:28.721Z,99905.42
2019-01-26T10:26:57.382Z,99897.98
2019-01-26T10:29:26.109Z,99895.16
2019-01-26T10:31:54.920Z,99900.13
2019-01-26T10:34:23.669Z,99896.83
2019-01-26T10:37:11.448Z,99898.46
2019-01-26T10:39:40.292Z,99902.59
2019-01-26T10:42:28.058Z,99907.05
2019-01-26T10:44:57.018Z,99902.92
2019-01-26T10:47:25.899Z,99904.59
2019-01-26T10:49:54.644Z,99903.75
2019-01-26T10:52:23.350Z,99906.22
2019-01-26T10:54:52.021Z,99904.25
2019-01-26T10:57:20.657Z,99900.44
2019-01-26T10:59:49.271Z,99892.66
2019-01-26T11:02:17.959Z,99889.17
2019-01-26T11:04:46.682Z,99889.69
2019-01-26T11:07:15.889Z,99885.57
2019-01-26T11:09:45.967Z,99875.66
2019-01-26T11:12:16.097Z,99881.61
2019-01-26T11:14:44.799Z,99870.87
2019-01-26T11:17:13.444Z,99874.17
2019-01-26T11:19:42.092Z,99870.67
2019-01-26T11:22:10.805Z,99872.67
2019-01-26T11:24:39.425Z,99868.70
2019-01-26T11:27:08.204Z,99862.89
2019-01-26T11:29:43.043Z,99861.38
2019-01-26T11:32:11.717Z,99848.31
2019-01-26T11:34:40.403Z,99840.51
2019-01-26T11:37:09.137Z,99847.94
2019-01-26T11:42:27.175Z,99845.97
2019-01-26T11:45:14.798Z,99839.17
2019-01-26T11:47:43.554Z,99829.43
2019-01-26T11:53:06.878Z,99825.21
2019-01-26T11:55:54.598Z,99823.66
2019-01-26T11:58:23.236Z,99817.70
2019-01-26T12:01:10.884Z,99822.85
2019-01-26T12:03:58.511Z,99814.07
2019-01-26T12:06:30.834Z,99815.73
2019-01-26T12:08:59.605Z,99824.16
2019-01-26T12:11:28.305Z,99816.72
2019-01-26T12:13:56.956Z,99815.80
2019-01-26T12:16:26.993Z,99821.60
2019-01-26T12:18:56.012Z,99812.89
2019-01-26T12:21:24.676Z,99811.66
2019-01-26T12:23:53.361Z,99802.11
2019-01-26T12:26:22.126Z,99809.29
2019-01-26T12:28:50.755Z,99799.01
2019-01-26T12:31:19.396Z,99796.48
2019-01-26T12:33:48.081Z,99790.84
2019-01-26T12:36:16.691Z,99791.20
2019-01-26T12:38:45.337Z,99789.05
2019-01-26T12:41:14.046Z,99790.45
2019-01-26T12:44:02.071Z,99795.28
2019-01-26T12:46:30.710Z,99786.32
2019-01-26T12:48:59.419Z,99785.41
2019-01-26T12:51:28.040Z,99785.54
2019-01-26T12:53:56.666Z,99786.98
2019-01-26T12:56:25.421Z,99777.41
2019-01-26T12:58:54.618Z,99777.91
2019-01-26T13:01:24.428Z,99782.24
2019-01-26T13:03:53.122Z,99778.11
2019-01-26T13:06:21.885Z,99777.03
2019-01-26T13:08:50.578Z,99775.91
2019-01-26T13:11:25.561Z,99771.05
2019-01-26T13:13:54.332Z,99763.30
2019-01-26T13:16:23.032Z,99769.61
2019-01-26T13:18:51.713Z,99754.20
2019-01-26T13:21:20.444Z,99761.26
2019-01-26T13:23:49.104Z,99756.73
2019-01-26T13:26:17.827Z,99754.11
2019-01-26T13:28:46.542Z,99753.56
2019-01-26T13:31:15.335Z,99751.61
2019-01-26T13:33:44.044Z,99755.28
2019-01-26T13:36:12.675Z,99746.69
2019-01-26T13:38:41.307Z,99741.38
2019-01-26T13:41:10.006Z,99742.19
2019-01-26T13:43:38.828Z,99740.03
2019-01-26T13:46:07.515Z,99740.30
2019-01-26T13:48:56.789Z,99741.41
2019-01-26T13:51:25.494Z,99742.59
2019-01-26T13:53:54.169Z,99742.67
2019-01-26T13:56:22.780Z,99737.66
2019-01-26T13:58:51.480Z,99733.92
2019-01-26T14:01:20.122Z,99730.02
2019-01-26T14:03:48.747Z,99734.84
2019-01-26T14:06:17.543Z,99729.27
2019-01-26T14:08:46.213Z,99730.38
2019-01-26T14:11:14.925Z,99735.06
2019-01-26T14:13:43.554Z,99730.84
2019-01-26T14:16:12.266Z,99733.49
2019-01-26T14:18:40.944Z,99730.66
2019-01-26T14:21:09.644Z,99727.55
2019-01-26T14:23:38.254Z,99723.42
2019-01-26T14:26:07.002Z,99720.58
2019-01-26T14:28:36.951Z,99716.20
2019-01-26T14:34:27.515Z,99728.22
2019-01-26T14:37:22.679Z,99720.00
2019-01-26T14:39:52.542Z,99717.04
2019-01-26T14:50:56.242Z,99708.69
2019-01-26T14:53:26.114Z,99710.17
2019-01-26T14:55:55.492Z,99710.08
2019-01-26T14:58:45.516Z,99706.94
2019-01-26T15:01:14.651Z,99703.73
2019-01-26T15:03:43.917Z,99691.81
2019-01-26T15:06:15.897Z,99696.80
2019-01-26T15:08:48.330Z,99693.38
2019-01-26T15:14:40.305Z,99676.53
2019-01-26T15:17:09.034Z,99672.94
2019-01-26T15:19:37.779Z,99652.80
2019-01-26T15:22:06.472Z,99650.08
2019-01-26T15:24:35.106Z,99653.36
2019-01-26T15:27:03.794Z,99648.33
2019-01-26T15:29:32.477Z,99649.33
2019-01-26T15:32:01.096Z,99639.31
2019-01-26T15:34:29.724Z,99635.49
2019-01-26T15:36:58.360Z,99637.42
2019-01-26T15:39:27.161Z,99637.46
2019-01-26T15:41:55.854Z,99641.74
2019-01-26T15:44:24.503Z,99642.52
2019-01-26T15:46:53.115Z,99640.73
2019-01-26T15:49:21.762Z,99636.05
2019-01-26T15:51:50.378Z,99635.78
2019-01-26T15:54:19.144Z,99626.63
2019-01-26T15:56:47.833Z,99627.53
2019-01-26T15:59:16.516Z,99619.77
2019-01-26T16:01:45.252Z,99618.13
2019-01-26T16:04:14.026Z,99616.91
2019-01-26T16:06:42.770Z,99614.53
2019-01-26T16:09:11.560Z,99615.73
2019-01-26T16:11:40.300Z,99603.91
2019-01-26T16:14:08.985Z,99611.97
2019-01-26T16:16:37.638Z,99609.55
2019-01-26T16:19:06.354Z,99606.80
2019-01-26T16:21:36.999Z,99600.64
2019-01-26T16:24:26.448Z,99605.70
2019-01-26T16:27:22.933Z,99599.26
2019-01-26T16:29:51.947Z,99602.06
2019-01-26T16:32:35.397Z,99593.44
2019-01-26T16:34:51.312Z,99591.38
2019-01-26T16:37:20.111Z,99591.69
2019-01-26T16:39:48.913Z,99594.33
2019-01-26T16:42:17.729Z,99589.93
2019-01-26T16:47:34.269Z,99585.16
2019-01-26T16:50:02.994Z,99579.98
2019-01-26T16:52:31.763Z,99577.72
2019-01-26T16:55:02.943Z,99576.23
2019-01-26T16:57:31.578Z,99574.20
2019-01-26T17:00:00.511Z,99566.91
2019-01-26T17:02:50.075Z,99566.66
2019-01-26T17:05:25.491Z,99563.58
2019-01-26T17:07:49.495Z,99565.67
2019-01-26T17:10:25.913Z,99564.20
2019-01-26T17:12:54.526Z,99562.41
2019-01-26T17:15:23.208Z,99551.83
2019-01-26T17:17:51.939Z,99552.97
2019-01-26T17:20:25.790Z,99552.20
2019-01-26T17:22:54.870Z,99546.08
2019-01-26T17:25:24.045Z,99540.59
2019-01-26T17:27:56.157Z,99535.42
2019-01-26T17:30:30.510Z,99533.30
2019-01-26T17:32:59.510Z,99527.66
2019-01-26T17:35:30.819Z,99522.61
2019-01-26T17:38:02.129Z,99525.78
2019-01-26T17:40:31.458Z,99528.98
2019-01-26T17:43:21.595Z,99523.42
2019-01-26T17:46:09.972Z,99517.67
2019-01-26T17:48:40.804Z,99512.09
2019-01-26T17:51:09.614Z,99505.63
2019-01-26T17:53:38.333Z,99505.16
2019-01-26T17:56:07.264Z,99499.98
2019-01-26T17:58:36.631Z,99492.13
2019-01-26T18:04:20.688Z,99480.09
2019-01-26T18:06:49.413Z,99474.54
2019-01-26T18:09:58.239Z,99470.07
2019-01-26T18:12:47.886Z,99471.43
2019-01-26T18:15:16.733Z,99463.98
2019-01-26T18:17:45.772Z,99472.38
2019-01-26T18:20:36.736Z,99463.98
2019-01-26T18:23:05.467Z,99460.73
2019-01-26T18:25:36.872Z,99458.09
2019-01-26T18:28:05.558Z,99456.27
2019-01-26T18:30:34.480Z,99453.78
2019-01-26T18:33:03.131Z,99447.31
2019-01-26T18:35:31.842Z,99447.69
2019-01-26T18:38:00.658Z,99439.67
2019-01-26T18:40:29.396Z,99434.58
2019-01-26T18:42:58.222Z,99439.94
2019-01-26T18:45:27.031Z,99427.39
2019-01-26T18:47:55.782Z,99418.77
2019-01-26T18:50:26.291Z,99419.94
2019-01-26T18:52:55.014Z,99416.73
2019-01-26T18:55:23.645Z,99415.67
2019-01-26T18:57:52.331Z,99411.24
2019-01-26T19:00:23.492Z,99400.97
2019-01-26T19:02:55.943Z,99402.14
2019-01-26T19:08:12.598Z,99396.89
2019-01-26T19:10:41.237Z,99381.95
2019-01-26T19:13:09.857Z,99382.70
2019-01-26T19:15:39.519Z,99381.05
2019-01-26T19:18:08.977Z,99371.94
2019-01-26T19:20:37.719Z,99362.75
2019-01-26T19:25:55.971Z,99363.02
2019-01-26T19:28:24.609Z,99353.42
2019-01-26T19:30:53.379Z,99353.73
2019-01-26T19:33:22.172Z,99341.72
2019-01-26T19:35:50.962Z,99342.90
2019-01-26T19:38:19.636Z,99331.63
2019-01-26T19:40:50.918Z,99330.02
2019-01-26T19:43:19.576Z,99327.81
2019-01-26T19:45:48.354Z,99326.15
2019-01-26T19:48:17.042Z,99316.80
2019-01-26T19:50:45.722Z,99314.15
2019-01-26T19:53:14.347Z,99305.85
2019-01-26T19:55:43.110Z,99305.62
2019-01-26T19:58:13.656Z,99297.47
2019-01-26T20:00:42.536Z,99294.34
2019-01-26T20:03:11.260Z,99286.80
2019-01-26T20:05:39.970Z,99287.00
2019-01-26T20:08:08.841Z,99277.97
2019-01-26T20:10:37.480Z,99268.36
2019-01-26T20:13:06.240Z,99270.57
2019-01-26T20:15:34.888Z,99250.86
2019-01-26T20:18:24.356Z,99247.09
2019-01-26T20:20:53.304Z,99238.17
2019-01-26T20:23:22.021Z,99239.99
2019-01-26T20:25:50.739Z,99235.91
2019-01-26T20:28:19.463Z,99229.11
2019-01-26T20:30:48.307Z,99226.49
2019-01-26T20:33:17.103Z,99226.60
2019-01-26T20:35:45.908Z,99216.37
2019-01-26T20:38:14.562Z,99212.54
2019-01-26T20:40:43.279Z,99207.80
2019-01-26T20:43:31.239Z,99205.72
2019-01-26T20:45:59.875Z,99194.84
2019-01-26T20:48:28.486Z,99180.91
2019-01-26T20:50:57.280Z,99180.91
2019-01-26T20:53:26.026Z,99187.39
2019-01-26T20:55:54.633Z,99189.46
2019-01-26T20:58:23.298Z,99179.13
2019-01-26T21:00:51.899Z,99180.64
2019-01-26T21:03:20.632Z,99175.95
2019-01-26T21:05:49.248Z,99169.11
2019-01-26T21:08:17.871Z,99171.75
2019-01-26T21:10:46.611Z,99170.69
2019-01-26T21:13:16.383Z,99169.64
2019-01-26T21:15:45.716Z,99158.22
2019-01-26T21:18:14.357Z,99158.46
2019-01-26T21:20:43.005Z,99149.89
2019-01-26T21:23:11.766Z,99144.87
2019-01-26T21:25:40.487Z,99136.16
2019-01-26T21:28:09.125Z,99135.59
2019-01-26T21:30:37.741Z,99134.95
2019-01-26T21:33:06.490Z,99128.91
2019-01-26T21:35:35.131Z,99129.48
2019-01-26T21:38:03.840Z,99132.44
2019-01-26T21:40:32.734Z,99127.72
2019-01-26T21:43:01.984Z,99129.34
2019-01-26T21:45:30.679Z,99129.94
2019-01-26T21:48:00.131Z,99127.21
2019-01-26T21:50:30.406Z,99127.39
2019-01-26T21:53:18.406Z,99125.20
2019-01-26T21:55:47.404Z,99119.70
2019-01-26T21:58:16.423Z,99112.67
2019-01-26T22:01:23.889Z,99110.52
2019-01-26T22:04:11.451Z,99107.73
2019-01-26T22:12:30.951Z,99091.72
2019-01-26T22:14:59.951Z,99083.55
2019-01-26T22:17:29.873Z,99078.55
2019-01-26T22:28:56.318Z,99061.18
2019-01-26T22:37:38.310Z,99042.75
2019-01-26T22:43:08.405Z,99024.63
2019-01-26T22:48:29.535Z,99010.23
2019-01-26T22:50:58.356Z,99004.64
2019-01-26T22:59:01.782Z,98991.41
2019-01-26T23:01:51.457Z,98985.48
2019-01-26T23:04:27.805Z,98980.13
2019-01-26T23:07:35.025Z,98979.63
2019-01-26T23:10:27.148Z,98968.50
2019-01-26T23:13:34.592Z,98961.26
2019-01-26T23:16:31.053Z,98948.50
2019-01-26T23:19:38.284Z,98937.16
2019-01-26T23:22:47.526Z,98936.53
2019-01-26T23:25:55.130Z,98924.80
2019-01-26T23:29:02.426Z,98908.39
2019-01-26T23:37:14.551Z,98884.75
2019-01-26T23:43:01.669Z,98874.13
2019-01-26T23:48:18.219Z,98858.60
2019-01-26T23:51:06.719Z,98855.80
2019-01-26T23:56:21.893Z,98834.86
2019-01-26T23:58:50.727Z,98835.23
